Airports

 

 

Airport Name Latest METAR Visual Conditions
Kansas City International Airport (MCI) KMCI 172353Z 20008KT 5SM HZ SCT250 34/19 A2983 RMK AO2 SLP086 T03390194 10367 20311 58008
MVFR
St. Louis-Lambert International Airport (STL) KSTL 172351Z 17011KT 10SM SCT250 34/22 A2988 RMK AO2 SLP103 T03440222 10356 20339 56006
VFR
Tulsa International Airport (TUL) KTUL 172353Z 22007G15KT 10SM FEW250 36/19 A2988 RMK AO2 SLP109 T03560194 10372 20350 56012
VFR
Wichita Dwight D. Eisenhower National Airport (ICT) KICT 172353Z 19012G21KT 10SM FEW190 36/14 A2985 RMK AO2 SLP091 T03560139 10378 20356 58015
VFR
Springfield-Branson National Airport (SGF) KSGF 172352Z 24005KT 10SM CLR 32/19 A2994 RMK AO2 SLP121 T03220194 10339 20322 55004
VFR
Abraham Lincoln Capital Airport (SPI) KSPI 172352Z 17012KT 10SM CLR 32/19 A2988 RMK AO2 SLP112 T03220189 10339 20317 56010
VFR